sensor_id;sensor_type;location;lat;lon;timestamp;temperature;humidity
45137;DHT22;30894;51.740;19.498;2024-02-14T00:02:48;2.60;99.90
45137;DHT22;30894;51.740;19.498;2024-02-14T00:05:21;2.50;99.90
45137;DHT22;30894;51.740;19.498;2024-02-14T00:07:56;2.80;99.90
45137;DHT22;30894;51.740;19.498;2024-02-14T00:10:26;2.60;99.90
45137;DHT22;30894;51.740;19.498;2024-02-14T00:16:05;2.60;99.90
45137;DHT22;30894;51.740;19.498;2024-02-14T00:18:43;2.60;99.90
45137;DHT22;30894;51.740;19.498;2024-02-14T00:21:25;2.60;99.90
45137;DHT22;30894;51.740;19.498;2024-02-14T00:23:56;2.60;99.90
45137;DHT22;30894;51.740;19.498;2024-02-14T00:26:33;2.50;99.90
45137;DHT22;30894;51.740;19.498;2024-02-14T00:29:16;2.60;99.90
45137;DHT22;30894;51.740;19.498;2024-02-14T00:31:51;2.60;99.90
45137;DHT22;30894;51.740;19.498;2024-02-14T00:34:19;2.60;99.90
45137;DHT22;30894;51.740;19.498;2024-02-14T00:36:48;2.60;99.90
45137;DHT22;30894;51.740;19.498;2024-02-14T00:39:27;2.60;99.90
45137;DHT22;30894;51.740;19.498;2024-02-14T00:42:04;2.60;99.90
45137;DHT22;30894;51.740;19.498;2024-02-14T00:44:48;2.60;99.90
45137;DHT22;30894;51.740;19.498;2024-02-14T00:47:14;2.70;99.90
45137;DHT22;30894;51.740;19.498;2024-02-14T00:49:46;2.70;99.90
45137;DHT22;30894;51.740;19.498;2024-02-14T00:52:12;2.70;99.90
45137;DHT22;30894;51.740;19.498;2024-02-14T00:54:53;2.60;99.90
45137;DHT22;30894;51.740;19.498;2024-02-14T00:57:42;2.70;99.90
45137;DHT22;30894;51.740;19.498;2024-02-14T01:00:19;2.70;99.90
45137;DHT22;30894;51.740;19.498;2024-02-14T01:02:51;2.70;99.90
45137;DHT22;30894;51.740;19.498;2024-02-14T01:05:19;2.70;99.90
45137;DHT22;30894;51.740;19.498;2024-02-14T01:07:47;2.60;99.90
45137;DHT22;30894;51.740;19.498;2024-02-14T01:10:21;2.60;99.90
45137;DHT22;30894;51.740;19.498;2024-02-14T01:12:48;2.60;99.90
45137;DHT22;30894;51.740;19.498;2024-02-14T01:15:21;2.50;99.90
45137;DHT22;30894;51.740;19.498;2024-02-14T01:17:48;3.40;99.90
45137;DHT22;30894;51.740;19.498;2024-02-14T01:20:15;2.60;99.90
45137;DHT22;30894;51.740;19.498;2024-02-14T01:22:43;2.70;99.90
45137;DHT22;30894;51.740;19.498;2024-02-14T01:25:18;2.50;99.90
45137;DHT22;30894;51.740;19.498;2024-02-14T01:27:44;2.70;99.90
45137;DHT22;30894;51.740;19.498;2024-02-14T01:30:15;2.70;99.90
45137;DHT22;30894;51.740;19.498;2024-02-14T01:32:45;2.60;99.90
45137;DHT22;30894;51.740;19.498;2024-02-14T01:35:12;2.60;99.90
45137;DHT22;30894;51.740;19.498;2024-02-14T01:37:40;2.60;99.90
45137;DHT22;30894;51.740;19.498;2024-02-14T01:40:17;2.50;99.90
45137;DHT22;30894;51.740;19.498;2024-02-14T01:42:45;2.50;99.90
45137;DHT22;30894;51.740;19.498;2024-02-14T01:45:14;2.50;99.90
45137;DHT22;30894;51.740;19.498;2024-02-14T01:47:43;2.50;99.90
45137;DHT22;30894;51.740;19.498;2024-02-14T01:50:10;2.50;99.90
45137;DHT22;30894;51.740;19.498;2024-02-14T01:52:43;2.50;99.90
45137;DHT22;30894;51.740;19.498;2024-02-14T01:55:12;2.50;99.90
45137;DHT22;30894;51.740;19.498;2024-02-14T01:57:39;2.50;99.90
45137;DHT22;30894;51.740;19.498;2024-02-14T02:00:06;2.50;99.90
45137;DHT22;30894;51.740;19.498;2024-02-14T02:02:48;2.40;99.90
45137;DHT22;30894;51.740;19.498;2024-02-14T02:05:16;2.40;99.90
45137;DHT22;30894;51.740;19.498;2024-02-14T02:07:46;2.30;99.90
45137;DHT22;30894;51.740;19.498;2024-02-14T02:10:14;2.20;99.90
45137;DHT22;30894;51.740;19.498;2024-02-14T02:12:43;2.10;99.90
45137;DHT22;30894;51.740;19.498;2024-02-14T02:15:10;2.00;99.90
45137;DHT22;30894;51.740;19.498;2024-02-14T02:17:42;1.90;99.90
45137;DHT22;30894;51.740;19.498;2024-02-14T02:20:10;1.80;99.90
45137;DHT22;30894;51.740;19.498;2024-02-14T02:22:40;1.60;99.90
45137;DHT22;30894;51.740;19.498;2024-02-14T02:25:12;1.50;99.90
45137;DHT22;30894;51.740;19.498;2024-02-14T02:27:38;1.50;99.90
45137;DHT22;30894;51.740;19.498;2024-02-14T02:30:16;1.40;99.90
45137;DHT22;30894;51.740;19.498;2024-02-14T02:32:45;1.30;99.90
45137;DHT22;30894;51.740;19.498;2024-02-14T02:35:17;1.30;99.90
45137;DHT22;30894;51.740;19.498;2024-02-14T02:37:51;1.20;99.90
45137;DHT22;30894;51.740;19.498;2024-02-14T02:40:19;1.20;99.90
45137;DHT22;30894;51.740;19.498;2024-02-14T02:42:48;1.20;99.90
45137;DHT22;30894;51.740;19.498;2024-02-14T02:45:17;0.90;99.90
45137;DHT22;30894;51.740;19.498;2024-02-14T02:47:43;0.80;99.90
45137;DHT22;30894;51.740;19.498;2024-02-14T02:50:12;0.70;99.90
45137;DHT22;30894;51.740;19.498;2024-02-14T02:52:41;0.70;99.90
45137;DHT22;30894;51.740;19.498;2024-02-14T02:55:09;0.60;99.90
45137;DHT22;30894;51.740;19.498;2024-02-14T02:57:37;0.50;99.90
45137;DHT22;30894;51.740;19.498;2024-02-14T03:00:06;0.50;99.90
45137;DHT22;30894;51.740;19.498;2024-02-14T03:02:34;0.30;99.90
45137;DHT22;30894;51.740;19.498;2024-02-14T03:05:07;0.20;99.90
45137;DHT22;30894;51.740;19.498;2024-02-14T03:07:39;0.10;99.90
45137;DHT22;30894;51.740;19.498;2024-02-14T03:10:05;0.10;99.90
45137;DHT22;30894;51.740;19.498;2024-02-14T03:12:34;0.00;99.90
45137;DHT22;30894;51.740;19.498;2024-02-14T03:15:03;-0.20;99.90
45137;DHT22;30894;51.740;19.498;2024-02-14T03:17:31;-0.20;99.90
45137;DHT22;30894;51.740;19.498;2024-02-14T03:19:59;-0.30;99.90
45137;DHT22;30894;51.740;19.498;2024-02-14T03:22:25;-0.30;99.90
45137;DHT22;30894;51.740;19.498;2024-02-14T03:24:52;-0.40;99.90
45137;DHT22;30894;51.740;19.498;2024-02-14T03:27:19;-0.50;99.90
45137;DHT22;30894;51.740;19.498;2024-02-14T03:29:52;-0.60;99.90
45137;DHT22;30894;51.740;19.498;2024-02-14T03:32:21;-0.50;99.90
45137;DHT22;30894;51.740;19.498;2024-02-14T03:34:50;-0.70;99.90
45137;DHT22;30894;51.740;19.498;2024-02-14T03:37:19;-0.80;99.90
45137;DHT22;30894;51.740;19.498;2024-02-14T03:39:47;-0.80;99.90
45137;DHT22;30894;51.740;19.498;2024-02-14T03:42:14;-0.10;99.90
45137;DHT22;30894;51.740;19.498;2024-02-14T03:44:46;-0.90;99.90
45137;DHT22;30894;51.740;19.498;2024-02-14T03:47:13;-1.10;99.90
45137;DHT22;30894;51.740;19.498;2024-02-14T03:49:40;-1.20;99.90
45137;DHT22;30894;51.740;19.498;2024-02-14T03:52:07;-1.00;99.90
45137;DHT22;30894;51.740;19.498;2024-02-14T03:54:36;-1.40;99.90
45137;DHT22;30894;51.740;19.498;2024-02-14T03:57:04;-1.40;99.90
45137;DHT22;30894;51.740;19.498;2024-02-14T03:59:36;-1.50;99.90
45137;DHT22;30894;51.740;19.498;2024-02-14T04:02:05;-1.50;99.90
45137;DHT22;30894;51.740;19.498;2024-02-14T04:04:41;-1.60;99.90
45137;DHT22;30894;51.740;19.498;2024-02-14T04:07:08;-1.60;99.90
45137;DHT22;30894;51.740;19.498;2024-02-14T04:09:35;-1.60;99.90
45137;DHT22;30894;51.740;19.498;2024-02-14T04:12:04;-1.70;99.90
45137;DHT22;30894;51.740;19.498;2024-02-14T04:14:33;-1.70;99.90
45137;DHT22;30894;51.740;19.498;2024-02-14T04:17:02;-1.70;99.90
45137;DHT22;30894;51.740;19.498;2024-02-14T04:19:30;-1.40;99.90
45137;DHT22;30894;51.740;19.498;2024-02-14T04:21:59;-1.70;99.90
45137;DHT22;30894;51.740;19.498;2024-02-14T04:24:33;-1.80;99.90
45137;DHT22;30894;51.740;19.498;2024-02-14T04:27:01;-1.40;99.90
45137;DHT22;30894;51.740;19.498;2024-02-14T04:29:33;-1.80;99.90
45137;DHT22;30894;51.740;19.498;2024-02-14T04:32:01;-1.80;99.90
45137;DHT22;30894;51.740;19.498;2024-02-14T04:34:28;-1.80;99.90
45137;DHT22;30894;51.740;19.498;2024-02-14T04:37:00;-2.00;99.90
45137;DHT22;30894;51.740;19.498;2024-02-14T04:39:32;-2.00;99.90
45137;DHT22;30894;51.740;19.498;2024-02-14T04:42:08;-2.00;99.90
45137;DHT22;30894;51.740;19.498;2024-02-14T04:44:37;-2.10;99.90
45137;DHT22;30894;51.740;19.498;2024-02-14T04:47:07;-2.20;99.90
45137;DHT22;30894;51.740;19.498;2024-02-14T04:49:38;-2.00;99.90
45137;DHT22;30894;51.740;19.498;2024-02-14T04:52:05;-2.20;99.90
45137;DHT22;30894;51.740;19.498;2024-02-14T04:54:36;-2.20;99.90
45137;DHT22;30894;51.740;19.498;2024-02-14T04:57:06;-2.30;99.90
45137;DHT22;30894;51.740;19.498;2024-02-14T04:59:43;-2.40;99.90
45137;DHT22;30894;51.740;19.498;2024-02-14T05:02:09;-1.80;99.90
45137;DHT22;30894;51.740;19.498;2024-02-14T05:04:45;-2.60;99.90
45137;DHT22;30894;51.740;19.498;2024-02-14T05:07:13;-2.50;99.90
45137;DHT22;30894;51.740;19.498;2024-02-14T05:09:44;-2.60;99.90
45137;DHT22;30894;51.740;19.498;2024-02-14T05:12:17;-2.70;99.90
45137;DHT22;30894;51.740;19.498;2024-02-14T05:15:04;-2.90;99.90
45137;DHT22;30894;51.740;19.498;2024-02-14T05:17:35;-2.80;99.90
45137;DHT22;30894;51.740;19.498;2024-02-14T05:20:02;-2.80;99.90
45137;DHT22;30894;51.740;19.498;2024-02-14T05:22:37;-2.80;99.90
45137;DHT22;30894;51.740;19.498;2024-02-14T05:25:05;-2.80;99.90
45137;DHT22;30894;51.740;19.498;2024-02-14T05:27:36;-2.70;99.90
45137;DHT22;30894;51.740;19.498;2024-02-14T05:30:07;-2.60;99.90
45137;DHT22;30894;51.740;19.498;2024-02-14T05:32:37;-2.50;99.90
45137;DHT22;30894;51.740;19.498;2024-02-14T05:35:08;-2.50;99.90
45137;DHT22;30894;51.740;19.498;2024-02-14T05:37:35;-2.40;99.90
45137;DHT22;30894;51.740;19.498;2024-02-14T05:40:04;-2.40;99.90
45137;DHT22;30894;51.740;19.498;2024-02-14T05:42:32;-2.60;99.90
45137;DHT22;30894;51.740;19.498;2024-02-14T05:45:04;-2.50;99.90
45137;DHT22;30894;51.740;19.498;2024-02-14T05:47:38;-2.50;99.90
45137;DHT22;30894;51.740;19.498;2024-02-14T05:50:06;-2.50;99.90
45137;DHT22;30894;51.740;19.498;2024-02-14T05:52:34;-2.50;99.90
45137;DHT22;30894;51.740;19.498;2024-02-14T05:55:02;-2.10;99.90
45137;DHT22;30894;51.740;19.498;2024-02-14T05:57:32;-2.70;99.90
45137;DHT22;30894;51.740;19.498;2024-02-14T06:00:02;-2.80;99.90
45137;DHT22;30894;51.740;19.498;2024-02-14T06:02:31;-2.80;99.90
45137;DHT22;30894;51.740;19.498;2024-02-14T06:04:59;-2.90;99.90
45137;DHT22;30894;51.740;19.498;2024-02-14T06:07:27;-2.90;99.90
45137;DHT22;30894;51.740;19.498;2024-02-14T06:09:54;-3.00;99.90
45137;DHT22;30894;51.740;19.498;2024-02-14T06:12:22;-3.00;99.90
45137;DHT22;30894;51.740;19.498;2024-02-14T06:14:49;-3.00;99.90
45137;DHT22;30894;51.740;19.498;2024-02-14T06:17:18;-3.10;99.90
45137;DHT22;30894;51.740;19.498;2024-02-14T06:19:50;-3.10;99.90
45137;DHT22;30894;51.740;19.498;2024-02-14T06:22:17;-2.20;99.90
45137;DHT22;30894;51.740;19.498;2024-02-14T06:24:44;-2.80;99.90
45137;DHT22;30894;51.740;19.498;2024-02-14T06:27:11;-3.00;99.90
45137;DHT22;30894;51.740;19.498;2024-02-14T06:29:42;-2.90;99.90
45137;DHT22;30894;51.740;19.498;2024-02-14T06:32:26;-2.60;99.90
45137;DHT22;30894;51.740;19.498;2024-02-14T06:35:02;-2.30;99.90
45137;DHT22;30894;51.740;19.498;2024-02-14T06:37:32;-1.90;99.90
45137;DHT22;30894;51.740;19.498;2024-02-14T06:39:59;-1.60;99.90
45137;DHT22;30894;51.740;19.498;2024-02-14T06:42:25;-1.00;99.90
45137;DHT22;30894;51.740;19.498;2024-02-14T06:44:55;-1.00;99.90
45137;DHT22;30894;51.740;19.498;2024-02-14T06:47:21;-0.50;99.90
45137;DHT22;30894;51.740;19.498;2024-02-14T06:49:59;-0.40;99.90
45137;DHT22;30894;51.740;19.498;2024-02-14T06:52:28;-0.10;99.90
45137;DHT22;30894;51.740;19.498;2024-02-14T06:54:57;0.10;99.90
45137;DHT22;30894;51.740;19.498;2024-02-14T06:57:31;0.40;99.90
45137;DHT22;30894;51.740;19.498;2024-02-14T07:00:02;0.60;99.90
45137;DHT22;30894;51.740;19.498;2024-02-14T07:02:38;0.90;99.90
45137;DHT22;30894;51.740;19.498;2024-02-14T07:05:06;1.10;99.90
45137;DHT22;30894;51.740;19.498;2024-02-14T07:07:34;1.40;99.90
45137;DHT22;30894;51.740;19.498;2024-02-14T07:10:04;1.80;99.90
45137;DHT22;30894;51.740;19.498;2024-02-14T07:12:40;2.20;99.90
45137;DHT22;30894;51.740;19.498;2024-02-14T07:15:08;2.60;99.90
45137;DHT22;30894;51.740;19.498;2024-02-14T07:17:37;2.90;99.90
45137;DHT22;30894;51.740;19.498;2024-02-14T07:20:16;3.30;99.90
45137;DHT22;30894;51.740;19.498;2024-02-14T07:22:51;3.60;99.90
45137;DHT22;30894;51.740;19.498;2024-02-14T07:25:21;3.90;99.90
45137;DHT22;30894;51.740;19.498;2024-02-14T07:27:47;4.20;99.90
45137;DHT22;30894;51.740;19.498;2024-02-14T07:30:23;4.70;99.90
45137;DHT22;30894;51.740;19.498;2024-02-14T07:32:53;4.90;99.90
45137;DHT22;30894;51.740;19.498;2024-02-14T07:35:19;5.00;99.90
45137;DHT22;30894;51.740;19.498;2024-02-14T07:37:48;4.90;99.90
45137;DHT22;30894;51.740;19.498;2024-02-14T07:40:18;5.00;99.90
45137;DHT22;30894;51.740;19.498;2024-02-14T07:42:44;5.10;99.90
45137;DHT22;30894;51.740;19.498;2024-02-14T07:45:14;5.20;99.90
45137;DHT22;30894;51.740;19.498;2024-02-14T07:47:42;5.50;99.90
45137;DHT22;30894;51.740;19.498;2024-02-14T07:50:09;5.70;99.90
45137;DHT22;30894;51.740;19.498;2024-02-14T07:52:42;6.10;99.90
45137;DHT22;30894;51.740;19.498;2024-02-14T07:55:14;6.50;99.90
45137;DHT22;30894;51.740;19.498;2024-02-14T07:57:45;6.80;99.90
45137;DHT22;30894;51.740;19.498;2024-02-14T08:00:12;7.10;99.90
45137;DHT22;30894;51.740;19.498;2024-02-14T08:02:46;7.20;99.90
45137;DHT22;30894;51.740;19.498;2024-02-14T08:05:13;7.30;99.90
45137;DHT22;30894;51.740;19.498;2024-02-14T08:07:43;7.40;99.90
45137;DHT22;30894;51.740;19.498;2024-02-14T08:10:11;7.40;99.90
45137;DHT22;30894;51.740;19.498;2024-02-14T08:12:37;7.50;99.90
45137;DHT22;30894;51.740;19.498;2024-02-14T08:15:07;7.50;99.90
45137;DHT22;30894;51.740;19.498;2024-02-14T08:17:34;7.70;99.90
45137;DHT22;30894;51.740;19.498;2024-02-14T08:20:04;7.90;99.90
45137;DHT22;30894;51.740;19.498;2024-02-14T08:22:34;8.30;99.90
45137;DHT22;30894;51.740;19.498;2024-02-14T08:25:00;8.70;99.90
45137;DHT22;30894;51.740;19.498;2024-02-14T08:27:26;9.30;99.90
45137;DHT22;30894;51.740;19.498;2024-02-14T08:29:53;9.60;99.90
45137;DHT22;30894;51.740;19.498;2024-02-14T08:32:22;9.90;99.90
45137;DHT22;30894;51.740;19.498;2024-02-14T08:34:49;10.30;99.90
45137;DHT22;30894;51.740;19.498;2024-02-14T08:37:20;10.70;99.90
45137;DHT22;30894;51.740;19.498;2024-02-14T08:39:53;11.10;99.90
45137;DHT22;30894;51.740;19.498;2024-02-14T08:42:27;11.40;99.70
45137;DHT22;30894;51.740;19.498;2024-02-14T08:44:53;11.50;99.00
45137;DHT22;30894;51.740;19.498;2024-02-14T08:47:23;11.40;99.00
45137;DHT22;30894;51.740;19.498;2024-02-14T08:49:56;11.30;99.30
45137;DHT22;30894;51.740;19.498;2024-02-14T08:52:24;11.30;99.40
45137;DHT22;30894;51.740;19.498;2024-02-14T08:54:53;11.60;99.00
45137;DHT22;30894;51.740;19.498;2024-02-14T08:57:19;12.10;98.30
45137;DHT22;30894;51.740;19.498;2024-02-14T08:59:46;12.40;97.40
45137;DHT22;30894;51.740;19.498;2024-02-14T09:02:14;12.80;96.90
45137;DHT22;30894;51.740;19.498;2024-02-14T09:05:12;13.10;95.90
45137;DHT22;30894;51.740;19.498;2024-02-14T09:08:36;13.00;95.40
45137;DHT22;30894;51.740;19.498;2024-02-14T09:11:14;12.90;95.50
45137;DHT22;30894;51.740;19.498;2024-02-14T09:14:15;12.80;95.60
45137;DHT22;30894;51.740;19.498;2024-02-14T09:20:50;12.20;96.30
45137;DHT22;30894;51.740;19.498;2024-02-14T09:23:17;12.20;96.70
45137;DHT22;30894;51.740;19.498;2024-02-14T09:25:51;12.10;96.80
45137;DHT22;30894;51.740;19.498;2024-02-14T09:28:17;12.10;96.70
45137;DHT22;30894;51.740;19.498;2024-02-14T09:30:54;12.10;96.70
45137;DHT22;30894;51.740;19.498;2024-02-14T09:33:21;12.20;96.60
45137;DHT22;30894;51.740;19.498;2024-02-14T09:35:54;12.40;96.50
45137;DHT22;30894;51.740;19.498;2024-02-14T09:38:25;12.80;96.00
45137;DHT22;30894;51.740;19.498;2024-02-14T09:40:57;13.20;95.30
45137;DHT22;30894;51.740;19.498;2024-02-14T09:43:36;13.30;94.60
45137;DHT22;30894;51.740;19.498;2024-02-14T09:46:19;13.20;94.00
45137;DHT22;30894;51.740;19.498;2024-02-14T09:48:48;13.00;94.00
45137;DHT22;30894;51.740;19.498;2024-02-14T09:51:18;13.00;94.00
45137;DHT22;30894;51.740;19.498;2024-02-14T09:53:45;13.20;93.90
45137;DHT22;30894;51.740;19.498;2024-02-14T09:56:22;13.50;93.40
45137;DHT22;30894;51.740;19.498;2024-02-14T09:58:56;13.70;92.70
45137;DHT22;30894;51.740;19.498;2024-02-14T10:01:26;13.90;92.20
45137;DHT22;30894;51.740;19.498;2024-02-14T10:03:56;14.10;91.80
45137;DHT22;30894;51.740;19.498;2024-02-14T10:06:23;14.20;91.70
45137;DHT22;30894;51.740;19.498;2024-02-14T10:08:54;14.50;91.40
45137;DHT22;30894;51.740;19.498;2024-02-14T10:11:23;14.80;90.90
45137;DHT22;30894;51.740;19.498;2024-02-14T10:13:52;15.10;90.40
45137;DHT22;30894;51.740;19.498;2024-02-14T10:16:26;15.50;89.00
45137;DHT22;30894;51.740;19.498;2024-02-14T10:18:53;15.60;87.60
45137;DHT22;30894;51.740;19.498;2024-02-14T10:21:23;15.80;86.70
45137;DHT22;30894;51.740;19.498;2024-02-14T10:24:03;16.00;86.10
45137;DHT22;30894;51.740;19.498;2024-02-14T10:26:33;16.20;85.50
45137;DHT22;30894;51.740;19.498;2024-02-14T10:29:01;16.10;85.40
45137;DHT22;30894;51.740;19.498;2024-02-14T10:31:42;16.10;84.30
45137;DHT22;30894;51.740;19.498;2024-02-14T10:34:09;15.80;84.70
45137;DHT22;30894;51.740;19.498;2024-02-14T10:36:45;15.70;85.00
45137;DHT22;30894;51.740;19.498;2024-02-14T10:39:14;15.40;83.90
45137;DHT22;30894;51.740;19.498;2024-02-14T10:41:42;15.30;84.70
45137;DHT22;30894;51.740;19.498;2024-02-14T10:44:13;15.30;84.70
45137;DHT22;30894;51.740;19.498;2024-02-14T10:46:53;15.30;84.70
45137;DHT22;30894;51.740;19.498;2024-02-14T10:49:22;15.30;84.40
45137;DHT22;30894;51.740;19.498;2024-02-14T10:51:54;15.40;83.80
45137;DHT22;30894;51.740;19.498;2024-02-14T10:54:31;15.50;83.90
45137;DHT22;30894;51.740;19.498;2024-02-14T10:56:58;15.80;83.60
45137;DHT22;30894;51.740;19.498;2024-02-14T10:59:46;16.10;82.60
45137;DHT22;30894;51.740;19.498;2024-02-14T11:02:20;16.40;80.70
45137;DHT22;30894;51.740;19.498;2024-02-14T11:04:46;16.50;79.20
45137;DHT22;30894;51.740;19.498;2024-02-14T11:07:16;16.40;78.70
45137;DHT22;30894;51.740;19.498;2024-02-14T11:09:44;16.30;78.60
45137;DHT22;30894;51.740;19.498;2024-02-14T11:12:13;16.20;77.70
45137;DHT22;30894;51.740;19.498;2024-02-14T11:14:44;16.00;77.70
45137;DHT22;30894;51.740;19.498;2024-02-14T11:17:23;15.90;77.40
45137;DHT22;30894;51.740;19.498;2024-02-14T11:19:56;16.00;78.20
45137;DHT22;30894;51.740;19.498;2024-02-14T11:22:25;16.20;76.90
45137;DHT22;30894;51.740;19.498;2024-02-14T11:24:55;16.10;76.10
45137;DHT22;30894;51.740;19.498;2024-02-14T11:27:47;16.10;75.50
45137;DHT22;30894;51.740;19.498;2024-02-14T11:30:15;16.00;75.30
45137;DHT22;30894;51.740;19.498;2024-02-14T11:33:18;16.30;75.30
45137;DHT22;30894;51.740;19.498;2024-02-14T11:35:48;16.40;75.00
45137;DHT22;30894;51.740;19.498;2024-02-14T11:38:18;16.50;74.80
45137;DHT22;30894;51.740;19.498;2024-02-14T11:40:45;16.50;74.70
45137;DHT22;30894;51.740;19.498;2024-02-14T11:43:19;16.40;74.80
45137;DHT22;30894;51.740;19.498;2024-02-14T11:45:49;16.40;75.00
45137;DHT22;30894;51.740;19.498;2024-02-14T11:48:23;16.40;75.30
45137;DHT22;30894;51.740;19.498;2024-02-14T11:50:52;16.40;75.00
45137;DHT22;30894;51.740;19.498;2024-02-14T11:53:20;16.30;74.60
45137;DHT22;30894;51.740;19.498;2024-02-14T11:55:49;16.20;74.40
45137;DHT22;30894;51.740;19.498;2024-02-14T11:58:17;16.00;74.50
45137;DHT22;30894;51.740;19.498;2024-02-14T12:00:45;16.10;75.00
45137;DHT22;30894;51.740;19.498;2024-02-14T12:03:18;16.20;74.70
45137;DHT22;30894;51.740;19.498;2024-02-14T12:05:51;16.20;74.50
45137;DHT22;30894;51.740;19.498;2024-02-14T12:08:19;16.30;74.10
45137;DHT22;30894;51.740;19.498;2024-02-14T12:10:46;16.40;73.90
45137;DHT22;30894;51.740;19.498;2024-02-14T12:13:20;16.60;73.40
45137;DHT22;30894;51.740;19.498;2024-02-14T12:15:56;17.10;72.60
45137;DHT22;30894;51.740;19.498;2024-02-14T12:18:39;16.90;72.50
45137;DHT22;30894;51.740;19.498;2024-02-14T12:21:17;16.80;73.10
45137;DHT22;30894;51.740;19.498;2024-02-14T12:23:44;16.70;73.30
45137;DHT22;30894;51.740;19.498;2024-02-14T12:26:16;16.90;73.30
45137;DHT22;30894;51.740;19.498;2024-02-14T12:28:46;16.80;73.40
45137;DHT22;30894;51.740;19.498;2024-02-14T12:31:21;16.80;73.70
45137;DHT22;30894;51.740;19.498;2024-02-14T12:33:53;16.80;73.90
45137;DHT22;30894;51.740;19.498;2024-02-14T12:36:22;16.50;72.80
45137;DHT22;30894;51.740;19.498;2024-02-14T12:38:58;16.10;73.30
45137;DHT22;30894;51.740;19.498;2024-02-14T12:41:25;16.00;74.30
45137;DHT22;30894;51.740;19.498;2024-02-14T12:44:10;15.80;74.70
45137;DHT22;30894;51.740;19.498;2024-02-14T12:47:02;15.40;75.10
45137;DHT22;30894;51.740;19.498;2024-02-14T12:49:44;15.00;76.60
45137;DHT22;30894;51.740;19.498;2024-02-14T12:52:34;14.70;77.60
45137;DHT22;30894;51.740;19.498;2024-02-14T12:55:14;14.60;78.30
45137;DHT22;30894;51.740;19.498;2024-02-14T12:57:45;14.50;78.10
45137;DHT22;30894;51.740;19.498;2024-02-14T13:00:47;14.50;78.70
45137;DHT22;30894;51.740;19.498;2024-02-14T13:07:02;14.60;78.50
45137;DHT22;30894;51.740;19.498;2024-02-14T13:09:38;14.90;78.70
45137;DHT22;30894;51.740;19.498;2024-02-14T13:15:56;14.90;77.20
45137;DHT22;30894;51.740;19.498;2024-02-14T13:19:10;14.80;77.50
45137;DHT22;30894;51.740;19.498;2024-02-14T13:21:55;14.60;78.50
45137;DHT22;30894;51.740;19.498;2024-02-14T13:24:27;14.40;79.10
45137;DHT22;30894;51.740;19.498;2024-02-14T13:27:02;14.20;79.00
45137;DHT22;30894;51.740;19.498;2024-02-14T13:29:45;14.10;79.20
45137;DHT22;30894;51.740;19.498;2024-02-14T13:32:15;13.80;79.30
45137;DHT22;30894;51.740;19.498;2024-02-14T13:34:51;13.60;79.80
45137;DHT22;30894;51.740;19.498;2024-02-14T13:37:19;13.30;80.50
45137;DHT22;30894;51.740;19.498;2024-02-14T13:39:51;13.00;81.10
45137;DHT22;30894;51.740;19.498;2024-02-14T13:42:21;12.60;81.90
45137;DHT22;30894;51.740;19.498;2024-02-14T13:44:49;12.20;83.00
45137;DHT22;30894;51.740;19.498;2024-02-14T13:47:23;11.90;83.50
45137;DHT22;30894;51.740;19.498;2024-02-14T13:49:58;12.00;84.50
45137;DHT22;30894;51.740;19.498;2024-02-14T13:52:33;11.70;84.70
45137;DHT22;30894;51.740;19.498;2024-02-14T13:55:12;11.60;85.00
45137;DHT22;30894;51.740;19.498;2024-02-14T13:57:41;11.40;84.90
45137;DHT22;30894;51.740;19.498;2024-02-14T14:00:19;11.40;84.80
45137;DHT22;30894;51.740;19.498;2024-02-14T14:02:55;11.20;84.70
45137;DHT22;30894;51.740;19.498;2024-02-14T14:05:29;10.90;85.10
45137;DHT22;30894;51.740;19.498;2024-02-14T14:08:03;10.70;85.70
45137;DHT22;30894;51.740;19.498;2024-02-14T14:10:39;10.50;86.60
45137;DHT22;30894;51.740;19.498;2024-02-14T14:13:19;10.40;87.10
45137;DHT22;30894;51.740;19.498;2024-02-14T14:15:46;10.20;87.80
45137;DHT22;30894;51.740;19.498;2024-02-14T14:18:14;10.00;88.50
45137;DHT22;30894;51.740;19.498;2024-02-14T14:20:43;9.90;89.20
45137;DHT22;30894;51.740;19.498;2024-02-14T14:23:13;9.80;89.70
45137;DHT22;30894;51.740;19.498;2024-02-14T14:25:43;9.70;89.80
45137;DHT22;30894;51.740;19.498;2024-02-14T14:28:13;9.60;90.00
45137;DHT22;30894;51.740;19.498;2024-02-14T14:30:44;9.70;90.00
45137;DHT22;30894;51.740;19.498;2024-02-14T14:33:14;9.80;90.00
45137;DHT22;30894;51.740;19.498;2024-02-14T14:35:40;9.70;89.90
45137;DHT22;30894;51.740;19.498;2024-02-14T14:38:08;9.60;90.00
45137;DHT22;30894;51.740;19.498;2024-02-14T14:40:35;9.50;90.10
45137;DHT22;30894;51.740;19.498;2024-02-14T14:43:04;9.30;90.40
45137;DHT22;30894;51.740;19.498;2024-02-14T14:45:33;9.10;90.70
45137;DHT22;30894;51.740;19.498;2024-02-14T14:48:08;9.00;90.90
45137;DHT22;30894;51.740;19.498;2024-02-14T14:50:38;8.90;91.30
45137;DHT22;30894;51.740;19.498;2024-02-14T14:53:04;8.80;91.50
45137;DHT22;30894;51.740;19.498;2024-02-14T14:55:55;8.60;91.70
45137;DHT22;30894;51.740;19.498;2024-02-14T14:58:31;8.50;92.00
45137;DHT22;30894;51.740;19.498;2024-02-14T15:01:00;8.50;92.30
45137;DHT22;30894;51.740;19.498;2024-02-14T15:03:29;8.20;92.80
45137;DHT22;30894;51.740;19.498;2024-02-14T15:05:56;8.20;92.70
45137;DHT22;30894;51.740;19.498;2024-02-14T15:08:25;8.20;92.90
45137;DHT22;30894;51.740;19.498;2024-02-14T15:10:52;8.10;93.00
45137;DHT22;30894;51.740;19.498;2024-02-14T15:13:36;8.10;93.20
45137;DHT22;30894;51.740;19.498;2024-02-14T15:16:38;8.10;93.30
45137;DHT22;30894;51.740;19.498;2024-02-14T15:23:32;7.90;93.70
45137;DHT22;30894;51.740;19.498;2024-02-14T15:26:02;7.80;93.90
45137;DHT22;30894;51.740;19.498;2024-02-14T15:28:34;7.80;94.10
45137;DHT22;30894;51.740;19.498;2024-02-14T15:31:12;7.60;94.50
45137;DHT22;30894;51.740;19.498;2024-02-14T15:34:03;7.60;94.40
45137;DHT22;30894;51.740;19.498;2024-02-14T15:36:36;7.50;94.60
45137;DHT22;30894;51.740;19.498;2024-02-14T15:39:03;7.40;94.80
45137;DHT22;30894;51.740;19.498;2024-02-14T15:41:32;7.20;95.10
45137;DHT22;30894;51.740;19.498;2024-02-14T15:44:13;7.00;95.40
45137;DHT22;30894;51.740;19.498;2024-02-14T15:46:48;6.60;95.70
45137;DHT22;30894;51.740;19.498;2024-02-14T15:49:14;6.60;96.10
45137;DHT22;30894;51.740;19.498;2024-02-14T15:51:47;6.40;96.50
45137;DHT22;30894;51.740;19.498;2024-02-14T15:54:22;6.20;96.90
45137;DHT22;30894;51.740;19.498;2024-02-14T15:56:48;6.00;97.40
45137;DHT22;30894;51.740;19.498;2024-02-14T15:59:19;5.80;97.80
45137;DHT22;30894;51.740;19.498;2024-02-14T16:01:45;5.80;98.20
45137;DHT22;30894;51.740;19.498;2024-02-14T16:04:52;5.60;98.50
45137;DHT22;30894;51.740;19.498;2024-02-14T16:07:18;5.70;98.80
45137;DHT22;30894;51.740;19.498;2024-02-14T16:09:51;5.50;98.90
45137;DHT22;30894;51.740;19.498;2024-02-14T16:12:27;5.40;99.10